createdAt,value
2019-03-22T00:00:39.910Z,4.20
2019-03-22T00:03:09.466Z,4.20
2019-03-22T00:05:39.059Z,4.10
2019-03-22T00:08:08.525Z,4.10
2019-03-22T00:10:38.001Z,4.00
2019-03-22T00:13:07.457Z,4.00
2019-03-22T00:15:37.177Z,4.00
2019-03-22T00:18:06.565Z,3.90
2019-03-22T00:20:36.578Z,3.90
2019-03-22T00:23:06.031Z,3.90
2019-03-22T00:25:35.996Z,3.90
2019-03-22T00:28:05.445Z,3.90
2019-03-22T00:30:34.841Z,3.80
2019-03-22T00:33:04.316Z,3.90
2019-03-22T00:35:33.719Z,3.90
2019-03-22T00:38:03.089Z,3.90
2019-03-22T00:40:32.450Z,3.80
2019-03-22T00:43:01.825Z,3.80
2019-03-22T00:45:31.521Z,3.80
2019-03-22T00:48:00.889Z,3.70
2019-03-22T00:50:30.326Z,3.70
2019-03-22T00:53:00.037Z,3.70
2019-03-22T00:55:29.474Z,3.70
2019-03-22T00:57:58.842Z,3.70
2019-03-22T01:00:28.207Z,3.60
2019-03-22T01:02:57.651Z,3.60
2019-03-22T01:05:27.200Z,3.60
2019-03-22T01:07:56.730Z,3.60
2019-03-22T01:10:26.241Z,3.60
2019-03-22T01:12:55.794Z,3.60
2019-03-22T01:15:25.225Z,3.50
2019-03-22T01:17:54.669Z,3.50
2019-03-22T01:20:24.113Z,3.50
2019-03-22T01:22:54.026Z,3.60
2019-03-22T01:25:23.469Z,3.50
2019-03-22T01:27:52.914Z,3.50
2019-03-22T01:30:22.356Z,3.50
2019-03-22T01:32:51.808Z,3.50
2019-03-22T01:35:21.280Z,3.40
2019-03-22T01:37:50.732Z,3.40
2019-03-22T01:40:20.249Z,3.40
2019-03-22T01:42:49.693Z,3.40
2019-03-22T01:45:19.134Z,3.40
2019-03-22T01:47:49.013Z,3.40
2019-03-22T01:50:18.678Z,3.40
2019-03-22T01:52:48.072Z,3.40
2019-03-22T01:55:17.522Z,3.40
2019-03-22T01:57:53.233Z,3.40
2019-03-22T02:00:18.824Z,3.40
2019-03-22T02:02:48.365Z,3.40
2019-03-22T02:05:18.065Z,3.40
2019-03-22T02:07:47.522Z,3.40
2019-03-22T02:10:17.518Z,3.40
2019-03-22T02:12:47.042Z,3.30
2019-03-22T02:15:16.967Z,3.10
2019-03-22T02:17:47.077Z,3.20
2019-03-22T02:20:17.382Z,3.20
2019-03-22T02:22:46.902Z,3.10
2019-03-22T02:25:16.704Z,3.10
2019-03-22T02:27:46.228Z,3.10
2019-03-22T02:30:15.963Z,3.20
2019-03-22T02:32:45.608Z,3.10
2019-03-22T02:35:27.622Z,3.10
2019-03-22T02:37:46.294Z,3.20
2019-03-22T02:40:15.735Z,3.10
2019-03-22T02:42:45.315Z,3.00
2019-03-22T02:45:15.258Z,3.00
2019-03-22T02:47:44.777Z,3.10
2019-03-22T02:50:18.666Z,3.00
2019-03-22T02:52:45.923Z,3.00
2019-03-22T02:55:15.682Z,3.00
2019-03-22T02:57:45.646Z,3.00
2019-03-22T03:00:15.950Z,3.00
2019-03-22T03:02:45.534Z,3.00
2019-03-22T03:05:15.478Z,2.90
2019-03-22T03:07:44.986Z,2.90
2019-03-22T03:10:15.369Z,2.90
2019-03-22T03:12:45.246Z,2.80
2019-03-22T03:15:15.415Z,2.80
2019-03-22T03:17:45.208Z,2.90
2019-03-22T03:20:15.677Z,2.90
2019-03-22T03:22:45.450Z,2.80
2019-03-22T03:25:15.458Z,2.80
2019-03-22T03:27:44.982Z,2.80
2019-03-22T03:30:15.771Z,2.80
2019-03-22T03:32:45.368Z,2.80
2019-03-22T03:35:15.077Z,2.80
2019-03-22T03:37:45.014Z,2.80
2019-03-22T03:40:15.443Z,2.80
2019-03-22T03:42:45.377Z,2.70
2019-03-22T03:45:30.526Z,2.70
2019-03-22T03:48:00.337Z,2.80
2019-03-22T03:50:29.784Z,2.80
2019-03-22T03:52:59.301Z,2.70
2019-03-22T03:55:29.086Z,2.70
2019-03-22T03:57:58.588Z,2.70
2019-03-22T04:00:28.093Z,2.70
2019-03-22T04:02:57.545Z,2.70
2019-03-22T04:05:27.049Z,2.70
2019-03-22T04:07:56.502Z,2.60
2019-03-22T04:10:25.936Z,2.60
2019-03-22T04:12:56.206Z,2.60
2019-03-22T04:15:25.582Z,2.60
2019-03-22T04:17:54.989Z,2.60
2019-03-22T04:20:24.977Z,2.60
2019-03-22T04:22:54.346Z,2.60
2019-03-22T04:25:23.802Z,2.60
2019-03-22T04:27:53.271Z,2.60
2019-03-22T04:30:22.742Z,2.60
2019-03-22T04:32:52.142Z,2.60
2019-03-22T04:35:21.510Z,2.50
2019-03-22T04:37:51.335Z,2.50
2019-03-22T04:40:28.149Z,2.40
2019-03-22T04:42:57.681Z,2.50
2019-03-22T04:45:29.849Z,2.40
2019-03-22T04:48:10.729Z,2.50
2019-03-22T04:50:43.299Z,2.60
2019-03-22T04:53:16.315Z,2.50
2019-03-22T04:55:48.667Z,2.60
2019-03-22T04:58:20.028Z,2.50
2019-03-22T05:00:50.957Z,2.60
2019-03-22T05:03:21.609Z,2.60
2019-03-22T05:05:52.416Z,2.50
2019-03-22T05:08:24.976Z,2.50
2019-03-22T05:10:55.585Z,2.50
2019-03-22T05:13:27.409Z,2.50
2019-03-22T05:15:57.746Z,2.40
2019-03-22T05:18:29.481Z,2.40
2019-03-22T05:20:59.635Z,2.40
2019-03-22T05:23:30.066Z,2.40
2019-03-22T05:26:02.290Z,2.50
2019-03-22T05:28:32.414Z,2.50
2019-03-22T05:32:07.334Z,2.50
2019-03-22T05:34:37.182Z,2.60
2019-03-22T05:37:06.899Z,2.50
2019-03-22T05:39:36.381Z,2.50
2019-03-22T05:42:06.103Z,2.50
2019-03-22T05:44:35.626Z,2.50
2019-03-22T05:47:25.562Z,2.60
2019-03-22T05:49:55.066Z,2.60
2019-03-22T05:52:24.433Z,2.70
2019-03-22T05:54:53.813Z,2.80
2019-03-22T05:57:23.246Z,2.80
2019-03-22T05:59:52.608Z,2.90
2019-03-22T06:02:22.047Z,2.90
2019-03-22T06:04:51.518Z,2.90
2019-03-22T06:07:20.984Z,3.00
2019-03-22T06:09:50.447Z,3.10
2019-03-22T06:12:19.969Z,3.10
2019-03-22T06:14:49.347Z,3.30
2019-03-22T06:17:18.801Z,3.40
2019-03-22T06:19:48.189Z,3.40
2019-03-22T06:22:17.634Z,3.40
2019-03-22T06:24:46.998Z,3.50
2019-03-22T06:27:16.369Z,3.70
2019-03-22T06:29:54.276Z,3.70
2019-03-22T06:32:17.209Z,3.90
2019-03-22T06:34:46.586Z,4.00
2019-03-22T06:37:15.952Z,4.10
2019-03-22T06:39:45.445Z,4.30
2019-03-22T06:42:14.890Z,4.40
2019-03-22T06:44:44.578Z,4.50
2019-03-22T06:47:14.025Z,4.60
2019-03-22T06:49:43.764Z,4.60
2019-03-22T06:52:13.125Z,4.80
2019-03-22T06:54:42.498Z,4.90
2019-03-22T06:57:11.929Z,4.90
2019-03-22T06:59:41.605Z,5.00
2019-03-22T07:02:11.120Z,5.20
2019-03-22T07:04:40.570Z,5.20
2019-03-22T07:07:09.937Z,5.30
2019-03-22T07:09:39.319Z,5.40
2019-03-22T07:12:08.713Z,5.50
2019-03-22T07:14:38.171Z,5.60
2019-03-22T07:17:07.685Z,5.70
2019-03-22T07:19:37.065Z,5.70
2019-03-22T07:22:06.569Z,5.90
2019-03-22T07:24:36.020Z,5.90
2019-03-22T07:27:05.922Z,6.00
2019-03-22T07:29:35.294Z,6.20
2019-03-22T07:32:04.749Z,6.20
2019-03-22T07:34:34.105Z,6.30
2019-03-22T07:37:03.493Z,6.40
2019-03-22T07:39:33.134Z,6.40
2019-03-22T07:42:02.642Z,6.60
2019-03-22T07:44:32.039Z,6.80
2019-03-22T07:47:01.426Z,7.00
2019-03-22T07:49:31.062Z,7.20
2019-03-22T07:52:00.428Z,7.40
2019-03-22T07:54:29.789Z,7.40
2019-03-22T07:56:59.235Z,7.50
2019-03-22T07:59:29.579Z,7.70
2019-03-22T08:01:59.107Z,7.90
2019-03-22T08:04:28.461Z,8.00
2019-03-22T08:06:57.833Z,8.20
2019-03-22T08:09:27.202Z,8.40
2019-03-22T08:11:56.651Z,8.50
2019-03-22T08:14:26.005Z,8.70
2019-03-22T08:16:55.569Z,8.70
2019-03-22T08:19:25.047Z,8.90
2019-03-22T08:21:54.533Z,8.90
2019-03-22T08:24:24.416Z,9.20
2019-03-22T08:26:53.938Z,9.30
2019-03-22T08:29:23.724Z,9.40
2019-03-22T08:31:53.299Z,9.60
2019-03-22T08:34:22.696Z,9.60
2019-03-22T08:36:52.142Z,9.80
2019-03-22T08:39:21.619Z,9.80
2019-03-22T08:41:51.099Z,9.90
2019-03-22T08:44:20.559Z,10.10
2019-03-22T08:46:49.997Z,10.20
2019-03-22T08:49:19.492Z,10.50
2019-03-22T08:51:49.811Z,10.80
2019-03-22T08:54:19.365Z,11.10
2019-03-22T08:56:48.839Z,11.10
2019-03-22T08:59:18.313Z,11.20
2019-03-22T09:01:47.897Z,11.30
2019-03-22T09:04:17.280Z,11.40
2019-03-22T09:06:46.668Z,11.60
2019-03-22T09:09:16.019Z,11.50
2019-03-22T09:11:45.393Z,11.80
2019-03-22T09:14:14.829Z,12.00
2019-03-22T09:16:44.274Z,12.10
2019-03-22T09:19:13.654Z,12.40
2019-03-22T09:21:43.051Z,12.70
2019-03-22T09:24:12.479Z,12.60
2019-03-22T09:26:47.506Z,12.80
2019-03-22T09:29:13.089Z,13.00
2019-03-22T09:31:42.529Z,13.10
2019-03-22T09:34:12.083Z,13.20
2019-03-22T09:36:41.726Z,13.30
2019-03-22T09:39:11.274Z,13.30
2019-03-22T09:41:40.792Z,13.60
2019-03-22T09:44:10.213Z,13.70
2019-03-22T09:46:39.580Z,13.60
2019-03-22T09:49:08.924Z,13.70
2019-03-22T09:51:38.298Z,14.10
2019-03-22T09:54:07.747Z,14.40
2019-03-22T09:56:46.841Z,14.70
2019-03-22T09:59:08.340Z,15.00
2019-03-22T10:01:37.733Z,15.20
2019-03-22T10:04:07.171Z,14.80
2019-03-22T10:06:36.636Z,14.90
2019-03-22T10:09:07.954Z,15.40
2019-03-22T10:11:37.519Z,15.50
2019-03-22T10:14:07.123Z,15.70
2019-03-22T10:16:36.657Z,16.00
2019-03-22T10:19:06.233Z,16.20
2019-03-22T10:21:35.700Z,16.30
2019-03-22T10:24:05.237Z,16.10
2019-03-22T10:26:34.607Z,16.00
2019-03-22T10:29:06.795Z,16.50
2019-03-22T10:31:37.449Z,16.60
2019-03-22T10:34:06.393Z,16.60
2019-03-22T10:36:35.838Z,16.90
2019-03-22T10:39:08.296Z,16.90
2019-03-22T10:41:37.956Z,16.80
2019-03-22T10:44:07.409Z,17.30
2019-03-22T10:46:36.813Z,17.50
2019-03-22T10:49:06.284Z,17.80
2019-03-22T10:51:35.802Z,18.10
2019-03-22T10:54:05.346Z,17.80
2019-03-22T10:56:34.752Z,17.50
2019-03-22T10:59:04.198Z,17.60
2019-03-22T11:01:46.509Z,17.90
2019-03-22T11:06:34.201Z,18.50
2019-03-22T11:09:04.937Z,18.50
2019-03-22T11:11:34.713Z,18.70
2019-03-22T11:14:04.374Z,18.80
2019-03-22T11:16:34.233Z,18.80
2019-03-22T11:19:03.889Z,18.70
2019-03-22T11:21:33.529Z,18.90
2019-03-22T11:24:02.981Z,18.90
2019-03-22T11:26:32.706Z,19.00
2019-03-22T11:29:02.263Z,19.20
2019-03-22T11:31:39.497Z,19.20
2019-03-22T11:34:03.083Z,19.20
2019-03-22T11:36:32.449Z,19.60
2019-03-22T11:39:02.209Z,19.60
2019-03-22T11:41:31.578Z,19.40
2019-03-22T11:44:01.342Z,19.30
2019-03-22T11:46:31.125Z,19.40
2019-03-22T11:49:00.557Z,20.00
2019-03-22T11:51:30.282Z,20.00
2019-03-22T11:53:59.662Z,19.90
2019-03-22T11:56:29.769Z,20.40
2019-03-22T11:58:59.161Z,20.70
2019-03-22T12:01:28.690Z,20.80
2019-03-22T12:03:58.095Z,21.10
2019-03-22T12:06:27.555Z,21.20
2019-03-22T12:08:57.017Z,21.50
2019-03-22T12:11:26.681Z,21.70
2019-03-22T12:13:56.055Z,21.80
2019-03-22T12:16:25.705Z,21.90
2019-03-22T12:18:55.225Z,21.80
2019-03-22T12:21:24.661Z,21.90
2019-03-22T12:23:54.109Z,21.70
2019-03-22T12:26:23.541Z,21.40
2019-03-22T12:28:53.233Z,21.20
2019-03-22T12:31:22.834Z,21.30
2019-03-22T12:33:52.212Z,21.30
2019-03-22T12:36:21.577Z,21.20
2019-03-22T12:38:51.057Z,21.10
2019-03-22T12:41:20.526Z,21.20
2019-03-22T12:43:49.985Z,21.30
2019-03-22T12:46:19.777Z,21.70
2019-03-22T12:48:49.569Z,21.80
2019-03-22T12:51:19.517Z,22.00
2019-03-22T12:53:48.906Z,21.80
2019-03-22T12:56:18.282Z,21.70
2019-03-22T12:58:47.720Z,21.70
2019-03-22T13:01:17.429Z,22.30
2019-03-22T13:03:46.805Z,22.40
2019-03-22T13:06:16.262Z,22.50
2019-03-22T13:08:45.709Z,22.70
2019-03-22T13:11:15.157Z,22.80
2019-03-22T13:13:44.575Z,22.50
2019-03-22T13:16:14.031Z,22.50
2019-03-22T13:18:50.016Z,22.20
2019-03-22T13:21:14.662Z,22.00
2019-03-22T13:23:44.038Z,21.90
2019-03-22T13:26:13.474Z,22.20
2019-03-22T13:28:43.169Z,22.50
2019-03-22T13:31:12.563Z,22.30
2019-03-22T13:33:42.034Z,22.60
2019-03-22T13:36:11.569Z,22.40
2019-03-22T13:38:41.110Z,22.40
2019-03-22T13:41:10.558Z,22.50
2019-03-22T13:43:40.040Z,22.30
2019-03-22T13:46:09.506Z,22.80
2019-03-22T13:48:39.002Z,22.90
2019-03-22T13:51:08.468Z,22.30
2019-03-22T13:53:37.925Z,22.40
2019-03-22T13:56:08.127Z,22.10
2019-03-22T13:58:37.649Z,22.20
2019-03-22T14:01:07.113Z,22.50
2019-03-22T14:03:36.561Z,22.90
2019-03-22T14:06:06.649Z,22.80
2019-03-22T14:08:36.353Z,22.50
2019-03-22T14:11:05.881Z,22.70
2019-03-22T14:13:35.417Z,22.40
2019-03-22T14:16:04.881Z,23.00
2019-03-22T14:18:34.565Z,23.00
2019-03-22T14:21:04.101Z,23.10
2019-03-22T14:23:33.656Z,23.20
2019-03-22T14:26:03.210Z,23.40
2019-03-22T14:28:32.793Z,23.60
2019-03-22T14:31:02.211Z,23.80
2019-03-22T14:33:31.785Z,24.00
2019-03-22T14:36:01.528Z,23.80
2019-03-22T14:38:30.901Z,23.90
2019-03-22T14:41:00.402Z,23.80
2019-03-22T14:43:30.402Z,23.60
2019-03-22T14:45:59.852Z,23.50
2019-03-22T14:48:29.235Z,23.80
2019-03-22T14:50:58.701Z,23.90
2019-03-22T14:53:28.144Z,24.00
2019-03-22T14:55:57.602Z,23.90
2019-03-22T14:58:27.080Z,24.00
2019-03-22T15:00:56.553Z,23.70
2019-03-22T15:03:27.157Z,23.80
2019-03-22T15:05:57.268Z,23.70
2019-03-22T15:08:26.988Z,23.50
2019-03-22T15:10:56.725Z,23.40
2019-03-22T15:13:35.877Z,22.90
2019-03-22T15:16:27.528Z,22.80
2019-03-22T15:19:18.848Z,22.60
2019-03-22T15:22:06.105Z,22.30
2019-03-22T15:24:54.113Z,22.30
2019-03-22T15:27:41.304Z,22.00
2019-03-22T15:30:28.918Z,21.50
2019-03-22T15:33:34.615Z,21.20
2019-03-22T15:36:26.057Z,21.00
2019-03-22T15:39:13.786Z,20.80
2019-03-22T15:41:43.380Z,20.90
2019-03-22T15:44:12.816Z,20.90
2019-03-22T15:46:42.426Z,20.80
2019-03-22T15:49:11.981Z,20.50
2019-03-22T15:51:41.541Z,20.20
2019-03-22T15:54:11.162Z,20.10
2019-03-22T15:56:40.727Z,20.00
2019-03-22T15:59:10.253Z,19.90
2019-03-22T16:01:40.121Z,19.80
2019-03-22T16:04:09.564Z,19.60
2019-03-22T16:06:39.106Z,19.50
2019-03-22T16:09:09.092Z,19.30
2019-03-22T16:11:38.768Z,19.20
2019-03-22T16:14:08.225Z,18.90
2019-03-22T16:16:37.697Z,18.80
2019-03-22T16:19:08.405Z,18.60
2019-03-22T16:21:37.799Z,18.30
2019-03-22T16:24:07.176Z,18.10
2019-03-22T16:26:36.917Z,17.90
2019-03-22T16:29:06.602Z,17.70
2019-03-22T16:31:36.150Z,17.50
2019-03-22T16:34:05.778Z,17.30
2019-03-22T16:36:35.486Z,17.10
2019-03-22T16:39:07.951Z,17.00
2019-03-22T16:41:37.745Z,16.80
2019-03-22T16:44:07.208Z,16.70
2019-03-22T16:46:36.666Z,16.50
2019-03-22T16:49:06.228Z,16.40
2019-03-22T16:51:35.970Z,16.20
2019-03-22T16:54:05.689Z,16.00
2019-03-22T16:56:35.065Z,15.80
2019-03-22T16:59:04.608Z,15.70
2019-03-22T17:01:34.946Z,15.50
2019-03-22T17:04:04.881Z,15.30
2019-03-22T17:06:34.416Z,15.10
2019-03-22T17:09:05.692Z,14.90
2019-03-22T17:11:35.202Z,14.80
2019-03-22T17:14:04.837Z,14.70
2019-03-22T17:16:34.398Z,14.60
2019-03-22T17:19:03.848Z,14.50
2019-03-22T17:21:33.238Z,14.40
2019-03-22T17:24:03.202Z,14.20
2019-03-22T17:26:32.586Z,14.00
2019-03-22T17:29:02.046Z,14.00
2019-03-22T17:31:31.434Z,13.90
2019-03-22T17:34:00.905Z,13.80
2019-03-22T17:36:30.384Z,13.60
2019-03-22T17:38:59.870Z,13.50
2019-03-22T17:41:29.394Z,13.40
2019-03-22T17:43:58.804Z,13.30
2019-03-22T17:46:28.198Z,13.10
2019-03-22T17:48:57.954Z,13.00
2019-03-22T17:51:27.404Z,12.90
2019-03-22T17:53:56.797Z,12.80
2019-03-22T17:56:26.318Z,12.70
2019-03-22T17:58:55.772Z,12.60
2019-03-22T18:01:25.453Z,12.50
2019-03-22T18:03:54.837Z,12.30
2019-03-22T18:06:24.367Z,12.10
2019-03-22T18:08:54.062Z,12.10
2019-03-22T18:11:23.442Z,12.10
2019-03-22T18:13:52.932Z,12.00
2019-03-22T18:16:22.406Z,11.90
2019-03-22T18:18:51.818Z,11.90
2019-03-22T18:21:21.803Z,11.80
2019-03-22T18:23:51.518Z,11.80
2019-03-22T18:26:21.077Z,11.70
2019-03-22T18:28:50.541Z,11.60
2019-03-22T18:31:20.225Z,11.60
2019-03-22T18:33:49.621Z,11.50
2019-03-22T18:36:18.993Z,11.40
2019-03-22T18:38:48.824Z,11.40
2019-03-22T18:41:18.298Z,11.30
2019-03-22T18:43:47.673Z,11.20
2019-03-22T18:46:17.253Z,11.20
2019-03-22T18:48:46.738Z,11.00
2019-03-22T18:51:16.171Z,11.00
2019-03-22T18:53:45.637Z,10.90
2019-03-22T18:56:15.102Z,10.80
2019-03-22T18:58:44.481Z,10.80
2019-03-22T19:01:13.877Z,10.70
2019-03-22T19:03:43.357Z,10.60
2019-03-22T19:06:13.080Z,10.50
2019-03-22T19:08:42.532Z,10.40
2019-03-22T19:11:11.924Z,10.30
2019-03-22T19:13:41.314Z,10.20
2019-03-22T19:16:10.950Z,10.20
2019-03-22T19:18:40.413Z,10.20
2019-03-22T19:21:09.807Z,10.10
2019-03-22T19:23:39.371Z,10.10
2019-03-22T19:26:08.930Z,10.00
2019-03-22T19:28:38.598Z,9.90
2019-03-22T19:31:08.002Z,9.80
2019-03-22T19:33:37.445Z,9.70
2019-03-22T19:36:06.905Z,9.70
2019-03-22T19:38:36.270Z,9.70
2019-03-22T19:41:05.798Z,9.60
2019-03-22T19:43:35.322Z,9.50
2019-03-22T19:46:04.903Z,9.50
2019-03-22T19:48:34.268Z,9.40
2019-03-22T19:51:03.733Z,9.30
2019-03-22T19:53:33.108Z,9.30
2019-03-22T19:56:02.667Z,9.20
2019-03-22T19:58:32.175Z,9.10
2019-03-22T20:01:01.978Z,9.10
2019-03-22T20:03:31.765Z,9.00
2019-03-22T20:06:01.242Z,9.00
2019-03-22T20:08:30.615Z,8.90
2019-03-22T20:11:00.266Z,8.90
2019-03-22T20:13:29.646Z,8.90
2019-03-22T20:15:59.113Z,8.80
2019-03-22T20:18:28.901Z,8.80
2019-03-22T20:20:58.709Z,8.70
2019-03-22T20:23:28.225Z,8.60
2019-03-22T20:25:57.922Z,8.60
2019-03-22T20:28:27.672Z,8.50
2019-03-22T20:30:57.092Z,8.50
2019-03-22T20:33:26.834Z,8.40
2019-03-22T20:35:56.450Z,8.40
2019-03-22T20:38:25.859Z,8.30
2019-03-22T20:40:55.413Z,8.30
2019-03-22T20:43:24.823Z,8.30
2019-03-22T20:45:54.681Z,8.30
2019-03-22T20:48:24.133Z,8.20
2019-03-22T20:50:53.598Z,8.20
2019-03-22T20:53:23.069Z,8.20
2019-03-22T20:55:52.525Z,8.10
2019-03-22T20:58:22.008Z,8.00
2019-03-22T21:00:51.562Z,8.00
2019-03-22T21:03:21.025Z,8.00
2019-03-22T21:05:50.477Z,7.90
2019-03-22T21:08:19.981Z,7.90
2019-03-22T21:10:50.032Z,7.90
2019-03-22T21:13:19.440Z,7.80
2019-03-22T21:15:49.058Z,7.80
2019-03-22T21:18:18.560Z,7.80
2019-03-22T21:20:48.137Z,7.80
2019-03-22T21:23:17.617Z,7.70
2019-03-22T21:25:47.280Z,7.60
2019-03-22T21:28:16.765Z,7.60
2019-03-22T21:30:46.346Z,7.60
2019-03-22T21:33:15.801Z,7.60
2019-03-22T21:35:45.797Z,7.50
2019-03-22T21:38:15.784Z,7.50
2019-03-22T21:40:45.325Z,7.50
2019-03-22T21:43:14.866Z,7.40
2019-03-22T21:45:44.307Z,7.40
2019-03-22T21:48:13.705Z,7.30
2019-03-22T21:50:43.170Z,7.30
2019-03-22T21:53:12.617Z,7.40
2019-03-22T21:55:42.158Z,7.40
2019-03-22T21:58:11.879Z,7.30
2019-03-22T22:00:41.450Z,7.30
2019-03-22T22:03:10.849Z,7.30
2019-03-22T22:05:47.737Z,7.20
2019-03-22T22:08:11.492Z,7.10
2019-03-22T22:10:41.245Z,7.10
2019-03-22T22:13:11.187Z,7.00
2019-03-22T22:15:40.970Z,7.00
2019-03-22T22:18:10.791Z,6.90
2019-03-22T22:20:40.820Z,6.90
2019-03-22T22:23:10.570Z,6.90
2019-03-22T22:25:40.271Z,6.90
2019-03-22T22:28:09.935Z,6.80
2019-03-22T22:30:39.650Z,6.70
2019-03-22T22:33:09.378Z,6.70
2019-03-22T22:35:39.127Z,6.70
2019-03-22T22:38:09.027Z,6.70
2019-03-22T22:40:38.544Z,6.70
2019-03-22T22:43:07.933Z,6.70
2019-03-22T22:45:37.304Z,6.70
2019-03-22T22:48:06.719Z,6.60
2019-03-22T22:50:36.346Z,6.60
2019-03-22T22:53:05.903Z,6.60
2019-03-22T22:55:35.434Z,6.60
2019-03-22T22:58:04.934Z,6.60
2019-03-22T23:00:34.873Z,6.60
2019-03-22T23:03:04.805Z,6.60
2019-03-22T23:05:34.769Z,6.60
2019-03-22T23:08:04.313Z,6.60
2019-03-22T23:10:33.702Z,6.60
2019-03-22T23:13:03.439Z,6.70
2019-03-22T23:15:32.962Z,6.70
2019-03-22T23:18:02.750Z,6.80
2019-03-22T23:20:32.219Z,7.00
2019-03-22T23:23:01.706Z,7.10
2019-03-22T23:25:31.210Z,7.00
2019-03-22T23:28:01.682Z,6.80
2019-03-22T23:30:31.605Z,6.80
2019-03-22T23:33:01.078Z,6.70
2019-03-22T23:35:30.656Z,6.60
2019-03-22T23:38:00.128Z,6.50
2019-03-22T23:40:29.582Z,6.50
2019-03-22T23:42:58.962Z,6.40
2019-03-22T23:45:28.689Z,6.40
2019-03-22T23:47:58.144Z,6.40
2019-03-22T23:50:28.092Z,6.40
2019-03-22T23:52:57.575Z,6.30
2019-03-22T23:55:27.127Z,6.30
2019-03-22T23:57:56.673Z,6.20
